createdAt,value
2017-09-14T00:00:52.284Z,15.47
2017-09-14T00:02:01.117Z,15.43
2017-09-14T00:03:09.953Z,15.47
2017-09-14T00:04:18.788Z,15.5
2017-09-14T00:05:27.625Z,15.49
2017-09-14T00:06:36.466Z,15.53
2017-09-14T00:07:45.301Z,15.47
2017-09-14T00:08:54.132Z,15.5
2017-09-14T00:10:02.966Z,15.49
2017-09-14T00:11:11.803Z,15.44
2017-09-14T00:12:20.639Z,15.38
2017-09-14T00:13:29.476Z,15.46
2017-09-14T00:14:38.308Z,15.46
2017-09-14T00:15:47.146Z,15.47
2017-09-14T00:16:55.981Z,15.35
2017-09-14T00:18:05.148Z,15.41
2017-09-14T00:19:13.983Z,15.44
2017-09-14T00:20:22.820Z,15.41
2017-09-14T00:21:31.652Z,15.39
2017-09-14T00:22:40.487Z,15.44
2017-09-14T00:23:49.321Z,15.34
2017-09-14T00:24:58.156Z,15.36
2017-09-14T00:26:06.994Z,15.46
2017-09-14T00:27:15.826Z,15.47
2017-09-14T00:28:24.665Z,15.38
2017-09-14T00:29:33.503Z,15.38
2017-09-14T00:30:42.334Z,15.35
2017-09-14T00:31:51.170Z,15.43
2017-09-14T00:33:00.003Z,15.44
2017-09-14T00:34:08.843Z,15.35
2017-09-14T00:35:17.673Z,15.34
2017-09-14T00:36:26.515Z,15.43
2017-09-14T00:37:35.349Z,15.44
2017-09-14T00:38:44.513Z,15.43
2017-09-14T00:39:53.352Z,15.32
2017-09-14T00:41:02.184Z,15.36
2017-09-14T00:42:11.019Z,15.39
2017-09-14T00:43:19.855Z,15.36
2017-09-14T00:44:28.685Z,15.31
2017-09-14T00:45:37.533Z,15.25
2017-09-14T00:46:46.363Z,15.38
2017-09-14T00:47:55.202Z,15.35
2017-09-14T00:49:04.031Z,15.25
2017-09-14T00:50:12.875Z,15.35
2017-09-14T00:51:21.706Z,15.28
2017-09-14T00:52:30.542Z,15.32
2017-09-14T00:53:39.376Z,15.36
2017-09-14T00:54:48.207Z,15.34
2017-09-14T00:55:57.040Z,15.29
2017-09-14T00:57:05.874Z,15.32
2017-09-14T00:58:14.712Z,15.28
2017-09-14T00:59:23.878Z,15.23
2017-09-14T01:00:32.712Z,15.19
2017-09-14T01:01:41.548Z,15.27
2017-09-14T01:02:50.379Z,15.23
2017-09-14T01:03:59.216Z,15.27
2017-09-14T01:05:08.051Z,15.23
2017-09-14T01:06:16.889Z,15.2
2017-09-14T01:07:25.729Z,15.28
2017-09-14T01:08:34.562Z,15.2
2017-09-14T01:09:43.397Z,15.19
2017-09-14T01:10:52.233Z,15.19
2017-09-14T01:12:01.392Z,15.21
2017-09-14T01:13:10.229Z,15.23
2017-09-14T01:14:19.388Z,15.2
2017-09-14T01:15:28.227Z,15.21
2017-09-14T01:16:37.058Z,15.2
2017-09-14T01:17:45.894Z,15.19
2017-09-14T01:18:54.733Z,15.2
2017-09-14T01:20:03.566Z,15.17
2017-09-14T01:21:12.401Z,15.2
2017-09-14T01:22:21.241Z,15.2
2017-09-14T01:23:30.075Z,15.25
2017-09-14T01:24:38.909Z,15.23
2017-09-14T01:25:47.750Z,15.23
2017-09-14T01:26:56.585Z,15.27
2017-09-14T01:28:05.413Z,15.23
2017-09-14T01:29:14.253Z,15.17
2017-09-14T01:30:23.081Z,15.23
2017-09-14T01:31:31.921Z,15.25
2017-09-14T01:32:40.754Z,15.29
2017-09-14T01:33:49.588Z,15.27
2017-09-14T01:34:58.422Z,15.27
2017-09-14T01:36:07.255Z,15.19
2017-09-14T01:37:16.085Z,15.2
2017-09-14T01:38:24.928Z,15.17
2017-09-14T01:39:33.762Z,15.36
2017-09-14T01:40:42.592Z,15.29
2017-09-14T01:41:51.423Z,15.28
2017-09-14T01:43:00.268Z,15.31
2017-09-14T01:44:09.097Z,15.35
2017-09-14T01:45:17.936Z,15.29
2017-09-14T01:46:27.095Z,15.34
2017-09-14T01:47:35.928Z,15.38
2017-09-14T01:48:44.760Z,15.36
2017-09-14T01:49:53.598Z,15.34
2017-09-14T01:51:02.438Z,15.31
2017-09-14T01:52:11.274Z,15.34
2017-09-14T01:53:20.108Z,15.35
2017-09-14T01:54:28.940Z,15.36
2017-09-14T01:55:37.779Z,15.38
2017-09-14T01:56:46.614Z,15.39
2017-09-14T01:57:55.447Z,15.39
2017-09-14T01:59:04.283Z,15.34
2017-09-14T02:00:13.115Z,15.35
2017-09-14T02:01:21.955Z,15.38
2017-09-14T02:02:30.787Z,15.38
2017-09-14T02:03:39.624Z,15.34
2017-09-14T02:04:48.460Z,15.39
2017-09-14T02:05:57.317Z,15.31
2017-09-14T02:07:06.130Z,15.38
2017-09-14T02:08:14.965Z,15.32
2017-09-14T02:09:23.798Z,15.32
2017-09-14T02:10:32.633Z,15.32
2017-09-14T02:11:41.466Z,15.38
2017-09-14T02:12:50.627Z,15.38
2017-09-14T02:13:59.467Z,15.38
2017-09-14T02:15:08.303Z,15.38
2017-09-14T02:16:17.140Z,15.41
2017-09-14T02:17:25.974Z,15.34
2017-09-14T02:18:34.812Z,15.44
2017-09-14T02:19:43.644Z,15.44
2017-09-14T02:20:52.803Z,15.35
2017-09-14T02:22:01.636Z,15.46
2017-09-14T02:23:10.803Z,15.36
2017-09-14T02:24:19.641Z,15.39
2017-09-14T02:25:28.470Z,15.39
2017-09-14T02:26:37.305Z,15.38
2017-09-14T02:27:46.142Z,15.38
2017-09-14T02:28:54.978Z,15.41
2017-09-14T02:30:03.813Z,15.35
2017-09-14T02:31:12.646Z,15.39
2017-09-14T02:32:21.485Z,15.34
2017-09-14T02:33:30.318Z,15.34
2017-09-14T02:34:39.152Z,15.35
2017-09-14T02:35:47.984Z,15.29
2017-09-14T02:36:56.820Z,15.38
2017-09-14T02:38:05.658Z,15.41
2017-09-14T02:39:14.497Z,15.38
2017-09-14T02:40:23.328Z,15.29
2017-09-14T02:41:32.156Z,15.25
2017-09-14T02:42:41.011Z,15.25
2017-09-14T02:43:49.828Z,15.31
2017-09-14T02:44:58.680Z,15.32
2017-09-14T02:46:07.514Z,15.28
2017-09-14T02:47:16.350Z,15.32
2017-09-14T02:48:25.190Z,15.38
2017-09-14T02:49:34.020Z,15.34
2017-09-14T02:50:42.853Z,15.39
2017-09-14T02:51:51.692Z,15.44
2017-09-14T02:53:00.528Z,15.41
2017-09-14T02:54:09.366Z,15.36
2017-09-14T02:55:18.203Z,15.41
2017-09-14T02:56:27.038Z,15.36
2017-09-14T02:57:35.870Z,15.41
2017-09-14T02:58:44.707Z,15.38
2017-09-14T02:59:53.540Z,15.41
2017-09-14T03:01:02.378Z,15.35
2017-09-14T03:02:11.208Z,15.38
2017-09-14T03:03:20.046Z,15.36
2017-09-14T03:04:28.880Z,15.31
2017-09-14T03:05:37.709Z,15.38
2017-09-14T03:06:46.545Z,15.36
2017-09-14T03:07:55.379Z,15.27
2017-09-14T03:09:04.210Z,15.29
2017-09-14T03:10:13.047Z,15.25
2017-09-14T03:11:21.896Z,15.28
2017-09-14T03:12:30.717Z,15.28
2017-09-14T03:13:39.555Z,15.19
2017-09-14T03:14:48.385Z,15.32
2017-09-14T03:15:57.219Z,15.23
2017-09-14T03:17:06.060Z,15.21
2017-09-14T03:18:14.896Z,15.17
2017-09-14T03:19:23.776Z,15.21
2017-09-14T03:20:32.609Z,15.28
2017-09-14T03:21:41.445Z,15.2
2017-09-14T03:22:50.281Z,15.23
2017-09-14T03:23:59.114Z,15.21
2017-09-14T03:25:07.944Z,15.27
2017-09-14T03:26:16.780Z,15.21
2017-09-14T03:27:25.614Z,15.19
2017-09-14T03:28:34.455Z,15.2
2017-09-14T03:29:43.294Z,15.2
2017-09-14T03:30:52.128Z,15.19
2017-09-14T03:32:00.960Z,15.21
2017-09-14T03:33:09.799Z,15.19
2017-09-14T03:34:18.983Z,15.2
2017-09-14T03:35:27.827Z,15.23
2017-09-14T03:36:36.659Z,15.17
2017-09-14T03:37:45.494Z,15.19
2017-09-14T03:38:54.328Z,15.19
2017-09-14T03:40:03.168Z,15.2
2017-09-14T03:41:12.008Z,15.23
2017-09-14T03:42:20.844Z,15.19
2017-09-14T03:43:29.679Z,15.21
2017-09-14T03:44:38.832Z,15.16
2017-09-14T03:45:47.668Z,15.16
2017-09-14T03:46:56.511Z,15.11
2017-09-14T03:48:05.352Z,15.09
2017-09-14T03:49:14.191Z,15.1
2017-09-14T03:50:23.027Z,15.1
2017-09-14T03:51:31.859Z,15.13
2017-09-14T03:52:40.690Z,15.13
2017-09-14T03:53:49.529Z,15.02
2017-09-14T03:54:58.365Z,15.02
2017-09-14T03:56:07.194Z,15.14
2017-09-14T03:57:16.028Z,15.1
2017-09-14T03:58:24.864Z,15.09
2017-09-14T03:59:33.702Z,15.03
2017-09-14T04:00:42.541Z,15.03
2017-09-14T04:01:51.370Z,15.09
2017-09-14T04:03:00.202Z,15.1
2017-09-14T04:04:09.038Z,15.06
2017-09-14T04:05:17.874Z,15.02
2017-09-14T04:06:26.709Z,14.98
2017-09-14T04:07:35.544Z,15.02
2017-09-14T04:08:44.379Z,15.03
2017-09-14T04:09:53.215Z,15.09
2017-09-14T04:11:02.049Z,14.99
2017-09-14T04:12:10.884Z,15.03
2017-09-14T04:13:19.723Z,15.06
2017-09-14T04:14:28.558Z,15.07
2017-09-14T04:15:37.386Z,15.03
2017-09-14T04:16:46.220Z,15.06
2017-09-14T04:17:55.058Z,15.09
2017-09-14T04:19:03.888Z,15.07
2017-09-14T04:20:12.727Z,15.1
2017-09-14T04:21:21.561Z,15.16
2017-09-14T04:22:30.399Z,15.07
2017-09-14T04:23:39.234Z,14.99
2017-09-14T04:24:48.070Z,15.11
2017-09-14T04:25:56.907Z,15.02
2017-09-14T04:27:05.744Z,15.06
2017-09-14T04:28:14.575Z,15.13
2017-09-14T04:29:23.412Z,15.07
2017-09-14T04:30:32.247Z,15.09
2017-09-14T04:31:41.087Z,15.09
2017-09-14T04:32:49.920Z,15.07
2017-09-14T04:33:58.755Z,15.07
2017-09-14T04:35:07.586Z,15.06
2017-09-14T04:36:16.420Z,15.11
2017-09-14T04:37:25.259Z,15.1
2017-09-14T04:38:34.094Z,15.17
2017-09-14T04:39:42.930Z,15.14
2017-09-14T04:40:51.767Z,15.14
2017-09-14T04:42:00.596Z,15.2
2017-09-14T04:43:09.433Z,15.23
2017-09-14T04:44:18.269Z,15.27
2017-09-14T04:45:27.107Z,15.16
2017-09-14T04:46:35.938Z,15.23
2017-09-14T04:47:44.776Z,15.19
2017-09-14T04:48:53.610Z,15.21
2017-09-14T04:50:02.446Z,15.2
2017-09-14T04:51:11.280Z,15.29
2017-09-14T04:52:20.112Z,15.23
2017-09-14T04:53:28.946Z,15.21
2017-09-14T04:54:37.783Z,15.25
2017-09-14T04:55:46.620Z,15.25
2017-09-14T04:56:55.456Z,15.27
2017-09-14T04:58:04.290Z,15.27
2017-09-14T04:59:13.455Z,15.21
2017-09-14T05:00:22.289Z,15.21
2017-09-14T05:01:31.125Z,15.27
2017-09-14T05:02:39.954Z,15.32
2017-09-14T05:03:48.797Z,15.32
2017-09-14T05:04:57.624Z,15.35
2017-09-14T05:06:06.462Z,15.36
2017-09-14T05:07:15.297Z,15.34
2017-09-14T05:08:24.135Z,15.36
2017-09-14T05:09:32.964Z,15.36
2017-09-14T05:10:41.798Z,15.38
2017-09-14T05:11:50.636Z,15.34
2017-09-14T05:12:59.472Z,15.17
2017-09-14T05:14:08.299Z,15.25
2017-09-14T05:15:17.138Z,15.23
2017-09-14T05:16:25.976Z,15.17
2017-09-14T05:17:34.811Z,15.2
2017-09-14T05:18:43.645Z,15.11
2017-09-14T05:19:52.480Z,15.16
2017-09-14T05:21:01.338Z,15.14
2017-09-14T05:22:10.147Z,15.14
2017-09-14T05:23:18.984Z,15.1
2017-09-14T05:24:27.821Z,15.14
2017-09-14T05:25:36.656Z,15.16
2017-09-14T05:26:45.491Z,15.17
2017-09-14T05:27:54.325Z,15.2
2017-09-14T05:29:03.160Z,15.23
2017-09-14T05:30:11.991Z,15.19
2017-09-14T05:31:20.836Z,15.21
2017-09-14T05:32:29.667Z,15.27
2017-09-14T05:33:38.509Z,15.23
2017-09-14T05:34:47.342Z,15.25
2017-09-14T05:35:56.175Z,15.23
2017-09-14T05:37:05.014Z,15.19
2017-09-14T05:38:13.856Z,15.14
2017-09-14T05:39:22.688Z,15.23
2017-09-14T05:40:31.524Z,15.19
2017-09-14T05:41:40.944Z,15.16
2017-09-14T05:42:50.732Z,15.16
2017-09-14T05:44:00.117Z,15.19
2017-09-14T05:45:09.458Z,15.21
2017-09-14T05:46:18.290Z,15.19
2017-09-14T05:47:27.287Z,15.2
2017-09-14T05:48:36.119Z,15.32
2017-09-14T05:49:45.254Z,15.36
2017-09-14T05:50:54.096Z,15.29
2017-09-14T05:52:03.381Z,15.31
2017-09-14T05:53:12.212Z,15.29
2017-09-14T05:54:21.052Z,15.34
2017-09-14T05:55:29.993Z,15.38
2017-09-14T05:56:38.827Z,15.39
2017-09-14T05:57:47.853Z,15.35
2017-09-14T05:58:57.071Z,15.47
2017-09-14T06:00:05.899Z,15.44
2017-09-14T06:01:14.742Z,15.35
2017-09-14T06:02:24.027Z,15.46
2017-09-14T06:03:32.981Z,15.44
2017-09-14T06:04:42.174Z,15.39
2017-09-14T06:05:51.004Z,15.46
2017-09-14T06:06:59.846Z,15.34
2017-09-14T06:08:08.797Z,15.31
2017-09-14T06:09:17.633Z,15.34
2017-09-14T06:10:26.721Z,15.36
2017-09-14T06:11:35.697Z,15.39
2017-09-14T06:12:44.805Z,15.35
2017-09-14T06:13:54.013Z,15.36
2017-09-14T06:15:02.960Z,15.35
2017-09-14T06:16:11.793Z,15.44
2017-09-14T06:17:20.674Z,15.39
2017-09-14T06:18:29.511Z,15.44
2017-09-14T06:19:38.666Z,15.35
2017-09-14T06:20:47.501Z,15.46
2017-09-14T06:21:56.336Z,15.38
2017-09-14T06:23:05.749Z,15.5
2017-09-14T06:24:15.299Z,15.47
2017-09-14T06:25:24.962Z,15.47
2017-09-14T06:26:33.874Z,15.49
2017-09-14T06:27:42.916Z,15.44
2017-09-14T06:28:52.478Z,15.49
2017-09-14T06:30:01.951Z,15.49
2017-09-14T06:31:10.974Z,15.44
2017-09-14T06:32:19.809Z,15.5
2017-09-14T06:33:28.643Z,15.43
2017-09-14T06:34:37.480Z,15.5
2017-09-14T06:35:46.316Z,15.47
2017-09-14T06:36:55.155Z,15.41
2017-09-14T06:38:03.993Z,15.5
2017-09-14T06:39:13.153Z,15.5
2017-09-14T06:40:21.984Z,15.47
2017-09-14T06:41:30.821Z,15.39
2017-09-14T06:42:39.659Z,15.46
2017-09-14T06:43:48.495Z,15.47
2017-09-14T06:44:57.333Z,15.5
2017-09-14T06:46:06.170Z,15.49
2017-09-14T06:47:15.010Z,15.49
2017-09-14T06:48:23.847Z,15.47
2017-09-14T06:49:32.853Z,15.47
2017-09-14T06:50:41.725Z,15.49
2017-09-14T06:51:50.558Z,15.5
2017-09-14T06:52:59.409Z,15.49
2017-09-14T06:54:08.304Z,15.49
2017-09-14T06:55:17.174Z,15.43
2017-09-14T06:56:26.383Z,15.47
2017-09-14T06:57:35.417Z,15.56
2017-09-14T06:58:44.250Z,15.56
2017-09-14T06:59:53.161Z,15.54
2017-09-14T07:01:01.997Z,15.54
2017-09-14T07:02:10.870Z,15.67
2017-09-14T07:03:20.011Z,15.65
2017-09-14T07:04:28.851Z,15.65
2017-09-14T07:05:38.036Z,15.68
2017-09-14T07:06:46.945Z,15.76
2017-09-14T07:07:56.162Z,15.8
2017-09-14T07:09:05.358Z,15.72
2017-09-14T07:10:14.245Z,15.72
2017-09-14T07:11:23.184Z,15.68
2017-09-14T07:12:32.017Z,15.74
2017-09-14T07:13:40.904Z,15.75
2017-09-14T07:14:49.774Z,15.72
2017-09-14T07:15:58.673Z,15.68
2017-09-14T07:17:07.676Z,15.72
2017-09-14T07:18:16.543Z,15.62
2017-09-14T07:19:25.796Z,15.71
2017-09-14T07:20:34.640Z,15.56
2017-09-14T07:21:43.817Z,15.64
2017-09-14T07:22:52.659Z,15.69
2017-09-14T07:24:01.537Z,15.67
2017-09-14T07:25:10.490Z,15.56
2017-09-14T07:26:19.378Z,15.71
2017-09-14T07:27:28.340Z,15.6
2017-09-14T07:28:37.416Z,15.62
2017-09-14T07:29:46.468Z,15.62
2017-09-14T07:30:55.307Z,15.69
2017-09-14T07:32:04.403Z,15.64
2017-09-14T07:33:13.567Z,15.67
2017-09-14T07:34:22.486Z,15.69
2017-09-14T07:35:31.375Z,15.83
2017-09-14T07:36:40.285Z,15.87
2017-09-14T07:37:49.168Z,15.86
2017-09-14T07:38:58.054Z,15.82
2017-09-14T07:40:07.204Z,15.96
2017-09-14T07:41:16.121Z,16.02
2017-09-14T07:42:25.038Z,15.97
2017-09-14T07:43:33.873Z,16.01
2017-09-14T07:44:42.709Z,15.93
2017-09-14T07:45:51.687Z,15.97
2017-09-14T07:47:00.579Z,15.86
2017-09-14T07:48:09.491Z,15.94
2017-09-14T07:49:18.686Z,15.86
2017-09-14T07:50:27.526Z,15.94
2017-09-14T07:51:36.364Z,16.02
2017-09-14T07:52:45.208Z,16.04
2017-09-14T07:53:54.112Z,16.02
2017-09-14T07:55:02.993Z,16.04
2017-09-14T07:56:11.915Z,16.14
2017-09-14T07:57:20.748Z,16.17
2017-09-14T07:58:29.585Z,16.07
2017-09-14T07:59:38.425Z,16.15
2017-09-14T08:00:47.259Z,16.08
2017-09-14T08:01:56.096Z,16.04
2017-09-14T08:03:04.963Z,16.17
2017-09-14T08:04:14.133Z,16.2
2017-09-14T08:05:23.073Z,16.17
2017-09-14T08:06:31.887Z,16.11
2017-09-14T08:07:40.725Z,16.14
2017-09-14T08:08:49.558Z,16.05
2017-09-14T08:09:58.718Z,16.09
2017-09-14T08:11:07.557Z,16.12
2017-09-14T08:12:16.398Z,16.11
2017-09-14T08:13:25.232Z,16.11
2017-09-14T08:14:34.397Z,16.15
2017-09-14T08:15:43.557Z,16.11
2017-09-14T08:16:52.393Z,16.08
2017-09-14T08:18:01.233Z,16.11
2017-09-14T08:19:10.071Z,16.15
2017-09-14T08:20:18.904Z,16.12
2017-09-14T08:21:27.747Z,16.09
2017-09-14T08:22:36.583Z,16.2
2017-09-14T08:23:45.420Z,16.2
2017-09-14T08:24:54.259Z,16.14
2017-09-14T08:26:03.094Z,16.2
2017-09-14T08:27:11.928Z,16.2
2017-09-14T08:28:20.771Z,16.17
2017-09-14T08:29:29.606Z,16.23
2017-09-14T08:30:38.445Z,16.2
2017-09-14T08:31:47.283Z,16.14
2017-09-14T08:32:56.117Z,16.12
2017-09-14T08:34:05.277Z,16.21
2017-09-14T08:35:14.114Z,16.15
2017-09-14T08:36:22.956Z,16.17
2017-09-14T08:37:31.792Z,16.23
2017-09-14T08:38:40.629Z,16.27
2017-09-14T08:39:49.469Z,16.33
2017-09-14T08:40:58.302Z,16.35
2017-09-14T08:42:07.141Z,16.3
2017-09-14T08:43:15.971Z,16.38
2017-09-14T08:44:25.137Z,16.31
2017-09-14T08:45:33.970Z,16.24
2017-09-14T08:46:42.811Z,16.28
2017-09-14T08:47:51.645Z,16.27
2017-09-14T08:49:00.475Z,16.31
2017-09-14T08:50:09.310Z,16.31
2017-09-14T08:51:18.149Z,16.31
2017-09-14T08:52:26.988Z,16.35
2017-09-14T08:53:35.827Z,16.34
2017-09-14T08:54:44.665Z,16.31
2017-09-14T08:55:53.497Z,16.38
2017-09-14T08:57:02.333Z,16.38
2017-09-14T08:58:11.168Z,16.39
2017-09-14T08:59:20.006Z,16.42
2017-09-14T09:00:28.847Z,16.35
2017-09-14T09:01:37.680Z,16.35
2017-09-14T09:02:46.514Z,16.43
2017-09-14T09:03:55.350Z,16.48
2017-09-14T09:05:04.513Z,16.45
2017-09-14T09:06:13.351Z,16.56
2017-09-14T09:07:22.188Z,16.53
2017-09-14T09:08:31.023Z,16.56
2017-09-14T09:09:39.858Z,16.58
2017-09-14T09:10:48.694Z,16.57
2017-09-14T09:11:57.536Z,16.5
2017-09-14T09:13:06.691Z,16.56
2017-09-14T09:14:15.535Z,16.57
2017-09-14T09:15:24.370Z,16.56
2017-09-14T09:16:33.202Z,16.58
2017-09-14T09:17:42.042Z,16.6
2017-09-14T09:18:51.113Z,16.73
2017-09-14T09:20:00.023Z,16.52
2017-09-14T09:21:08.860Z,16.61
2017-09-14T09:22:17.697Z,16.56
2017-09-14T09:23:27.216Z,16.58
2017-09-14T09:24:36.131Z,16.58
2017-09-14T09:25:44.993Z,16.73
2017-09-14T09:26:53.999Z,16.67
2017-09-14T09:28:02.840Z,16.75
2017-09-14T09:29:11.752Z,16.56
2017-09-14T09:30:20.625Z,16.66
2017-09-14T09:31:29.505Z,16.5
2017-09-14T09:32:38.642Z,16.58
2017-09-14T09:33:47.477Z,16.58
2017-09-14T09:34:56.391Z,16.58
2017-09-14T09:36:05.232Z,16.63
2017-09-14T09:37:14.493Z,16.63
2017-09-14T09:38:23.397Z,16.58
2017-09-14T09:39:32.310Z,16.56
2017-09-14T09:40:41.163Z,16.6
2017-09-14T09:41:50.090Z,16.57
2017-09-14T09:42:59.225Z,16.6
2017-09-14T09:44:08.068Z,16.71
2017-09-14T09:45:16.907Z,16.73
2017-09-14T09:46:25.748Z,16.76
2017-09-14T09:47:34.682Z,16.7
2017-09-14T09:48:44.031Z,16.75
2017-09-14T09:49:52.870Z,16.66
2017-09-14T09:51:01.923Z,16.66
2017-09-14T09:52:11.262Z,16.75
2017-09-14T09:53:20.100Z,16.7
2017-09-14T09:54:28.935Z,16.68
2017-09-14T09:55:38.162Z,16.58
2017-09-14T09:56:46.998Z,16.68
2017-09-14T09:57:55.902Z,16.7
2017-09-14T09:59:05.040Z,16.63
2017-09-14T10:00:13.878Z,16.68
2017-09-14T10:01:22.882Z,16.67
2017-09-14T10:02:31.729Z,16.64
2017-09-14T10:03:40.711Z,16.56
2017-09-14T10:04:49.550Z,16.56
2017-09-14T10:05:58.415Z,16.57
2017-09-14T10:07:07.283Z,16.58
2017-09-14T10:08:16.175Z,16.57
2017-09-14T10:09:25.320Z,16.58
2017-09-14T10:10:34.155Z,16.52
2017-09-14T10:11:43.052Z,16.58
2017-09-14T10:12:51.890Z,16.58
2017-09-14T10:14:00.890Z,16.52
2017-09-14T10:15:09.726Z,16.58
2017-09-14T10:16:18.608Z,16.76
2017-09-14T10:17:27.480Z,16.68
2017-09-14T10:18:36.316Z,16.67
2017-09-14T10:19:45.394Z,16.7
2017-09-14T10:20:54.938Z,16.7
2017-09-14T10:22:03.897Z,16.73
2017-09-14T10:23:12.802Z,16.7
2017-09-14T10:24:21.715Z,16.67
2017-09-14T10:25:30.654Z,16.68
2017-09-14T10:26:39.535Z,16.7
2017-09-14T10:27:48.469Z,16.71
2017-09-14T10:28:57.436Z,16.75
2017-09-14T10:30:06.625Z,16.67
2017-09-14T10:31:15.527Z,16.71
2017-09-14T10:32:24.719Z,16.67
2017-09-14T10:33:33.556Z,16.73
2017-09-14T10:34:42.435Z,16.82
2017-09-14T10:35:51.296Z,16.78
2017-09-14T10:37:00.223Z,16.82
2017-09-14T10:38:09.204Z,16.85
2017-09-14T10:39:18.772Z,16.88
2017-09-14T10:40:27.968Z,16.85
2017-09-14T10:41:36.804Z,16.85
2017-09-14T10:42:45.989Z,16.85
2017-09-14T10:43:54.860Z,16.85
2017-09-14T10:45:03.738Z,16.89
2017-09-14T10:46:12.576Z,16.85
2017-09-14T10:47:21.488Z,16.97
2017-09-14T10:48:30.512Z,16.98
2017-09-14T10:49:39.781Z,17.11
2017-09-14T10:50:48.769Z,17.04
2017-09-14T10:51:57.600Z,17.06
2017-09-14T10:53:06.481Z,17.11
2017-09-14T10:54:15.755Z,17.16
2017-09-14T10:55:24.600Z,17.16
2017-09-14T10:56:33.439Z,17.15
2017-09-14T10:57:42.489Z,17.07
2017-09-14T10:58:51.817Z,17.08
2017-09-14T11:00:00.664Z,17.11
2017-09-14T11:01:09.546Z,17.14
2017-09-14T11:02:18.384Z,17.18
2017-09-14T11:03:27.260Z,17.16
2017-09-14T11:04:36.395Z,17.3
2017-09-14T11:05:45.567Z,17.19
2017-09-14T11:06:54.478Z,17.31
2017-09-14T11:08:03.352Z,17.41
2017-09-14T11:09:12.261Z,17.4
2017-09-14T11:10:21.227Z,17.4
2017-09-14T11:11:30.111Z,17.4
2017-09-14T11:12:39.034Z,17.43
2017-09-14T11:13:47.913Z,17.41
2017-09-14T11:14:56.790Z,17.41
2017-09-14T11:16:05.704Z,17.48
2017-09-14T11:17:14.570Z,17.4
2017-09-14T11:18:23.478Z,17.36
2017-09-14T11:19:32.434Z,17.25
2017-09-14T11:20:41.600Z,17.34
2017-09-14T11:21:50.440Z,17.28
2017-09-14T11:22:59.429Z,17.33
2017-09-14T11:24:08.422Z,17.33
2017-09-14T11:25:17.259Z,17.31
2017-09-14T11:26:26.098Z,17.3
2017-09-14T11:27:34.936Z,17.34
2017-09-14T11:28:43.777Z,17.33
2017-09-14T11:29:52.973Z,17.28
2017-09-14T11:31:01.810Z,17.25
2017-09-14T11:32:10.647Z,17.3
2017-09-14T11:33:19.485Z,17.21
2017-09-14T11:34:28.328Z,17.22
2017-09-14T11:35:37.164Z,17.07
2017-09-14T11:36:46.032Z,17
2017-09-14T11:37:54.870Z,16.83
2017-09-14T11:39:03.711Z,16.75
2017-09-14T11:40:12.548Z,16.48
2017-09-14T11:41:21.526Z,16.24
2017-09-14T11:42:30.365Z,16.01
2017-09-14T11:43:39.236Z,15.8
2017-09-14T11:44:48.076Z,15.57
2017-09-14T11:45:56.920Z,15.46
2017-09-14T11:47:05.750Z,15.38
2017-09-14T11:48:14.591Z,15.03
2017-09-14T11:49:23.454Z,14.99
2017-09-14T11:50:32.291Z,14.81
2017-09-14T11:51:41.126Z,14.65
2017-09-14T11:52:49.968Z,14.68
2017-09-14T11:53:58.801Z,14.7
2017-09-14T11:55:07.640Z,14.68
2017-09-14T11:56:16.474Z,14.7
2017-09-14T11:57:25.306Z,14.83
2017-09-14T11:58:34.143Z,14.83
2017-09-14T11:59:42.981Z,14.84
2017-09-14T12:00:51.815Z,14.81
2017-09-14T12:02:00.649Z,14.86
2017-09-14T12:03:09.508Z,14.84
2017-09-14T12:04:18.349Z,14.91
2017-09-14T12:05:27.346Z,14.89
2017-09-14T12:06:36.184Z,14.8
2017-09-14T12:07:45.023Z,14.83
2017-09-14T12:08:53.857Z,14.96
2017-09-14T12:10:02.694Z,14.99
2017-09-14T12:11:11.532Z,15.03
2017-09-14T12:12:20.370Z,15.09
2017-09-14T12:13:29.209Z,15.13
2017-09-14T12:14:38.044Z,15.19
2017-09-14T12:15:46.883Z,15.16
2017-09-14T12:16:55.747Z,15.23
2017-09-14T12:18:04.560Z,15.23
2017-09-14T12:19:13.393Z,15.25
2017-09-14T12:20:22.231Z,15.23
2017-09-14T12:21:31.065Z,15.21
2017-09-14T12:22:39.898Z,15.23
2017-09-14T12:23:48.730Z,15.31
2017-09-14T12:24:57.567Z,15.36
2017-09-14T12:26:06.406Z,15.39
2017-09-14T12:27:15.236Z,15.39
2017-09-14T12:28:24.073Z,15.49
2017-09-14T12:29:32.910Z,15.49
2017-09-14T12:30:41.745Z,15.53
2017-09-14T12:31:50.601Z,15.54
2017-09-14T12:32:59.566Z,15.46
2017-09-14T12:34:08.399Z,15.49
2017-09-14T12:35:17.247Z,15.59
2017-09-14T12:36:26.089Z,15.64
2017-09-14T12:37:34.927Z,15.5
2017-09-14T12:38:43.761Z,15.57
2017-09-14T12:39:52.596Z,15.51
2017-09-14T12:41:01.426Z,15.5
2017-09-14T12:42:10.265Z,15.44
2017-09-14T12:43:19.106Z,15.36
2017-09-14T12:44:27.936Z,15.23
2017-09-14T12:45:36.779Z,15.03
2017-09-14T12:46:45.612Z,15.09
2017-09-14T12:47:54.450Z,15.1
2017-09-14T12:49:03.286Z,15.03
2017-09-14T12:50:12.128Z,14.98
2017-09-14T12:51:20.960Z,14.96
2017-09-14T12:52:30.119Z,14.88
2017-09-14T12:53:38.959Z,14.73
2017-09-14T12:54:47.794Z,14.8
2017-09-14T12:55:56.633Z,14.8
2017-09-14T12:57:05.504Z,14.94
2017-09-14T12:58:14.296Z,14.99
2017-09-14T12:59:23.130Z,15.01
2017-09-14T13:00:31.978Z,14.99
2017-09-14T13:01:40.817Z,15.02
2017-09-14T13:02:49.980Z,15.01
2017-09-14T13:03:58.817Z,14.96
2017-09-14T13:05:07.653Z,15.03
2017-09-14T13:06:16.485Z,15.02
2017-09-14T13:07:25.329Z,14.99
2017-09-14T13:08:34.161Z,15.03
2017-09-14T13:09:43.002Z,15.03
2017-09-14T13:10:51.836Z,15.19
2017-09-14T13:12:00.674Z,15.23
2017-09-14T13:13:09.517Z,15.17
2017-09-14T13:14:18.353Z,15.27
2017-09-14T13:15:27.199Z,15.19
2017-09-14T13:16:36.036Z,15.03
2017-09-14T13:17:44.875Z,15.03
2017-09-14T13:18:53.706Z,15.1
2017-09-14T13:20:02.541Z,14.99
2017-09-14T13:21:11.380Z,15.02
2017-09-14T13:22:20.213Z,15.03
2017-09-14T13:23:29.377Z,15.06
2017-09-14T13:24:38.219Z,14.95
2017-09-14T13:25:47.376Z,15.07
2017-09-14T13:26:56.239Z,15.17
2017-09-14T13:28:05.077Z,15.21
2017-09-14T13:29:13.916Z,15.19
2017-09-14T13:30:22.748Z,15.21
2017-09-14T13:31:31.587Z,15.2
2017-09-14T13:32:40.422Z,15.19
2017-09-14T13:33:49.259Z,15.2
2017-09-14T13:34:58.100Z,15.11
2017-09-14T13:36:06.938Z,15.1
2017-09-14T13:37:15.935Z,15.11
2017-09-14T13:38:25.253Z,15.17
2017-09-14T13:39:34.093Z,15.16
2017-09-14T13:40:42.924Z,15.16
2017-09-14T13:41:51.760Z,14.99
2017-09-14T13:43:00.601Z,15.01
2017-09-14T13:44:09.438Z,15.06
2017-09-14T13:45:18.602Z,15.02
2017-09-14T13:46:27.435Z,14.89
2017-09-14T13:47:36.591Z,14.91
2017-09-14T13:48:45.427Z,14.81
2017-09-14T13:49:54.268Z,14.7
2017-09-14T13:51:03.105Z,14.88
2017-09-14T13:52:11.942Z,14.78
2017-09-14T13:53:20.772Z,14.72
2017-09-14T13:54:29.601Z,14.8
2017-09-14T13:55:38.441Z,14.83
2017-09-14T13:56:47.274Z,14.88
2017-09-14T13:57:56.114Z,14.96
2017-09-14T13:59:04.949Z,14.81
2017-09-14T14:00:13.787Z,14.72
2017-09-14T14:01:22.627Z,14.7
2017-09-14T14:02:31.459Z,14.65
2017-09-14T14:03:40.292Z,14.58
2017-09-14T14:04:49.128Z,14.42
2017-09-14T14:05:57.964Z,14.46
2017-09-14T14:07:06.797Z,14.45
2017-09-14T14:08:15.639Z,14.55
2017-09-14T14:09:24.478Z,14.45
2017-09-14T14:10:33.308Z,14.52
2017-09-14T14:11:42.147Z,14.52
2017-09-14T14:12:50.986Z,14.62
2017-09-14T14:13:59.817Z,14.62
2017-09-14T14:15:08.652Z,14.69
2017-09-14T14:16:17.484Z,14.68
2017-09-14T14:17:26.321Z,14.58
2017-09-14T14:18:35.157Z,14.7
2017-09-14T14:19:43.993Z,14.57
2017-09-14T14:20:52.829Z,14.61
2017-09-14T14:22:01.671Z,14.7
2017-09-14T14:23:10.515Z,14.84
2017-09-14T14:24:19.350Z,14.77
2017-09-14T14:25:28.207Z,14.92
2017-09-14T14:26:37.072Z,14.92
2017-09-14T14:27:45.917Z,14.78
2017-09-14T14:28:54.782Z,14.8
2017-09-14T14:30:03.636Z,14.94
2017-09-14T14:31:12.489Z,14.99
2017-09-14T14:32:21.348Z,15.06
2017-09-14T14:33:30.205Z,15.01
2017-09-14T14:34:39.066Z,15.01
2017-09-14T14:35:47.918Z,15.01
2017-09-14T14:36:56.763Z,15.07
2017-09-14T14:38:05.632Z,15.09
2017-09-14T14:39:14.507Z,15.1
2017-09-14T14:40:23.361Z,15.21
2017-09-14T14:41:32.226Z,15.11
2017-09-14T14:42:41.083Z,15.1
2017-09-14T14:43:50.275Z,14.94
2017-09-14T14:44:59.143Z,14.99
2017-09-14T14:46:08.004Z,15.01
2017-09-14T14:47:17.189Z,14.98
2017-09-14T14:48:26.037Z,15.01
2017-09-14T14:49:34.900Z,15.02
2017-09-14T14:50:43.757Z,15.02